createdAt,value
2022-12-23T00:00:25.121Z,20.00
2022-12-23T00:02:53.859Z,21.10
2022-12-23T00:05:24.044Z,21.73
2022-12-23T00:07:52.728Z,18.83
2022-12-23T00:10:22.152Z,22.47
2022-12-23T00:13:08.225Z,18.50
2022-12-23T00:15:37.055Z,19.70
2022-12-23T00:18:05.619Z,18.50
2022-12-23T00:20:35.565Z,18.93
2022-12-23T00:23:09.126Z,18.63
2022-12-23T00:25:44.741Z,25.53
2022-12-23T00:28:15.548Z,19.40
2022-12-23T00:30:48.918Z,21.20
2022-12-23T00:33:18.976Z,16.77
2022-12-23T00:35:50.101Z,19.87
2022-12-23T00:38:40.574Z,17.60
2022-12-23T00:41:29.793Z,16.30
2022-12-23T00:43:59.327Z,13.77
2022-12-23T00:46:27.911Z,19.00
2022-12-23T00:49:13.895Z,16.17
2022-12-23T00:51:44.121Z,17.07
2022-12-23T00:54:13.819Z,17.43
2022-12-23T00:56:42.521Z,19.63
2022-12-23T00:59:12.094Z,18.30
2022-12-23T01:01:58.151Z,19.07
2022-12-23T01:04:41.233Z,19.90
2022-12-23T01:07:11.633Z,16.40
2022-12-23T01:09:40.234Z,18.70
2022-12-23T01:12:09.116Z,17.90
2022-12-23T01:14:38.229Z,17.10
2022-12-23T01:17:08.561Z,18.47
2022-12-23T01:19:37.509Z,18.33
2022-12-23T01:22:05.975Z,16.80
2022-12-23T01:24:35.800Z,12.60
2022-12-23T01:27:04.445Z,12.90
2022-12-23T01:29:33.139Z,15.53
2022-12-23T01:32:01.979Z,18.73
2022-12-23T01:34:36.299Z,16.23
2022-12-23T01:37:06.269Z,12.07
2022-12-23T01:39:36.547Z,13.73
2022-12-23T01:42:22.418Z,12.13
2022-12-23T01:44:55.220Z,11.40
2022-12-23T01:47:31.764Z,10.40
2022-12-23T01:50:08.482Z,11.80
2022-12-23T01:52:44.767Z,9.33
2022-12-23T01:55:17.400Z,11.90
2022-12-23T01:57:47.654Z,11.93
2022-12-23T02:00:34.430Z,10.17
2022-12-23T02:03:20.626Z,10.43
2022-12-23T02:05:49.812Z,13.10
2022-12-23T02:08:37.244Z,9.43
2022-12-23T02:11:32.070Z,9.60
2022-12-23T02:14:32.128Z,9.93
2022-12-23T02:17:10.069Z,8.80
2022-12-23T02:20:11.952Z,10.87
2022-12-23T02:23:01.343Z,10.80
2022-12-23T02:25:53.185Z,13.13
2022-12-23T02:28:50.835Z,10.50
2022-12-23T02:31:30.671Z,8.83
2022-12-23T02:34:03.966Z,8.80
2022-12-23T02:36:40.538Z,7.97
2022-12-23T02:39:11.953Z,9.83
2022-12-23T02:41:49.950Z,8.60
2022-12-23T02:44:31.036Z,12.50
2022-12-23T02:47:11.858Z,30.00
2022-12-23T02:49:44.645Z,11.07
2022-12-23T02:52:15.513Z,12.40
2022-12-23T02:54:50.433Z,26.73
2022-12-23T02:57:22.734Z,11.17
2022-12-23T02:59:53.600Z,10.33
2022-12-23T03:02:24.542Z,7.50
2022-12-23T03:04:53.237Z,8.90
2022-12-23T03:07:25.371Z,10.10
2022-12-23T03:10:03.784Z,7.90
2022-12-23T03:12:42.318Z,7.50
2022-12-23T03:15:33.573Z,7.90
2022-12-23T03:18:09.087Z,8.00
2022-12-23T03:20:46.331Z,8.23
2022-12-23T03:23:21.891Z,6.27
2022-12-23T03:25:59.005Z,8.50
2022-12-23T03:28:34.946Z,14.97
2022-12-23T03:31:05.455Z,19.30
2022-12-23T03:33:38.858Z,10.23
2022-12-23T03:36:14.331Z,8.87
2022-12-23T03:38:46.339Z,20.80
2022-12-23T03:41:19.330Z,17.10
2022-12-23T03:43:52.896Z,16.97
2022-12-23T03:46:29.203Z,14.30
2022-12-23T03:49:04.786Z,11.50
2022-12-23T03:51:38.115Z,15.47
2022-12-23T03:54:11.354Z,11.67
2022-12-23T03:56:44.504Z,12.67
2022-12-23T03:59:18.052Z,10.53
2022-12-23T04:01:57.021Z,14.33
2022-12-23T04:04:32.012Z,12.27
2022-12-23T04:07:06.194Z,22.80
2022-12-23T04:09:38.146Z,15.57
2022-12-23T04:12:09.028Z,15.97
2022-12-23T04:14:39.206Z,22.00
2022-12-23T04:17:07.664Z,16.33
2022-12-23T04:19:37.424Z,17.40
2022-12-23T04:22:05.943Z,20.00
2022-12-23T04:24:34.495Z,16.77
2022-12-23T04:27:03.181Z,17.87
2022-12-23T04:29:32.723Z,20.23
2022-12-23T04:32:01.252Z,15.23
2022-12-23T04:34:29.765Z,15.87
2022-12-23T04:36:59.725Z,16.87
2022-12-23T04:39:29.402Z,23.83
2022-12-23T04:41:58.705Z,18.90
2022-12-23T04:44:27.334Z,16.97
2022-12-23T04:46:56.375Z,17.87
2022-12-23T04:49:25.072Z,21.03
2022-12-23T04:51:53.536Z,19.77
2022-12-23T04:54:23.676Z,20.60
2022-12-23T04:56:52.276Z,21.40
2022-12-23T04:59:20.855Z,19.03
2022-12-23T05:01:49.772Z,25.93
2022-12-23T05:04:18.487Z,22.07
2022-12-23T05:06:46.984Z,19.93
2022-12-23T05:09:15.529Z,17.90
2022-12-23T05:11:46.701Z,17.07
2022-12-23T05:14:15.310Z,45.50
2022-12-23T05:16:43.990Z,52.60
2022-12-23T05:19:12.791Z,21.20
2022-12-23T05:21:41.272Z,24.90
2022-12-23T05:24:10.196Z,20.63
2022-12-23T05:26:38.862Z,84.23
2022-12-23T05:29:08.966Z,22.67
2022-12-23T05:31:37.888Z,25.57
2022-12-23T05:34:07.022Z,18.30
2022-12-23T05:36:35.861Z,19.20
2022-12-23T05:39:04.714Z,31.90
2022-12-23T05:41:33.585Z,27.60
2022-12-23T05:44:02.156Z,19.93
2022-12-23T05:46:33.530Z,53.30
2022-12-23T05:49:03.350Z,19.20
2022-12-23T05:51:32.056Z,20.83
2022-12-23T05:54:01.026Z,25.00
2022-12-23T05:56:29.452Z,18.73
2022-12-23T05:58:58.778Z,14.30
2022-12-23T06:01:27.310Z,12.20
2022-12-23T06:03:57.536Z,15.27
2022-12-23T06:06:26.140Z,47.00
2022-12-23T06:08:59.586Z,16.17
2022-12-23T06:11:28.979Z,104.47
2022-12-23T06:13:58.342Z,13.90
2022-12-23T06:16:26.958Z,15.20
2022-12-23T06:18:57.538Z,28.30
2022-12-23T06:21:26.898Z,15.97
2022-12-23T06:23:55.537Z,57.60
2022-12-23T06:26:24.051Z,16.33
2022-12-23T06:28:52.861Z,19.30
2022-12-23T06:31:21.706Z,16.13
2022-12-23T06:33:50.430Z,15.33
2022-12-23T06:36:20.407Z,22.43
2022-12-23T06:38:48.827Z,21.67
2022-12-23T06:41:17.493Z,25.83
2022-12-23T06:43:49.950Z,11.40
2022-12-23T06:46:22.692Z,13.10
2022-12-23T06:48:51.377Z,9.17
2022-12-23T06:51:21.741Z,13.33
2022-12-23T06:53:50.363Z,16.70
2022-12-23T06:56:19.877Z,19.37
2022-12-23T06:58:48.618Z,15.33
2022-12-23T07:01:17.303Z,96.77
2022-12-23T07:03:46.068Z,11.03
2022-12-23T07:06:15.609Z,15.90
2022-12-23T07:08:45.780Z,17.43
2022-12-23T07:11:14.650Z,17.93
2022-12-23T07:13:43.228Z,18.90
2022-12-23T07:16:11.846Z,5.50
2022-12-23T07:18:40.449Z,16.00
2022-12-23T07:21:19.735Z,8.73
2022-12-23T07:23:54.893Z,6.83
2022-12-23T07:26:23.398Z,6.13
2022-12-23T07:28:51.863Z,7.60
2022-12-23T07:31:20.545Z,16.57
2022-12-23T07:33:49.084Z,7.40
2022-12-23T07:36:18.787Z,8.30
2022-12-23T07:38:50.802Z,9.17
2022-12-23T07:41:21.088Z,7.83
2022-12-23T07:43:49.736Z,12.97
2022-12-23T07:46:18.256Z,7.30
2022-12-23T07:48:46.630Z,15.67
2022-12-23T07:51:15.170Z,10.77
2022-12-23T07:53:43.743Z,12.13
2022-12-23T07:56:12.315Z,18.13
2022-12-23T07:58:42.578Z,8.53
2022-12-23T08:01:12.586Z,9.90
2022-12-23T08:03:41.249Z,28.83
2022-12-23T08:06:12.766Z,29.43
2022-12-23T08:08:43.431Z,8.70
2022-12-23T08:11:14.507Z,9.77
2022-12-23T08:13:46.254Z,13.63
2022-12-23T08:16:14.783Z,9.17
2022-12-23T08:18:45.264Z,11.93
2022-12-23T08:21:15.979Z,6.67
2022-12-23T08:23:44.781Z,6.90
2022-12-23T08:26:15.368Z,9.37
2022-12-23T08:28:46.382Z,24.40
2022-12-23T08:31:17.170Z,9.90
2022-12-23T08:33:47.849Z,5.37
2022-12-23T08:36:22.702Z,14.53
2022-12-23T08:38:56.533Z,20.20
2022-12-23T08:41:26.894Z,13.60
2022-12-23T08:44:01.132Z,13.07
2022-12-23T08:46:30.537Z,14.57
2022-12-23T08:48:59.566Z,26.27
2022-12-23T08:51:30.075Z,24.07
2022-12-23T08:54:01.650Z,20.53
2022-12-23T08:56:33.131Z,38.67
2022-12-23T08:59:04.195Z,35.20
2022-12-23T09:01:34.787Z,28.20
2022-12-23T09:04:04.866Z,61.60
2022-12-23T09:06:36.147Z,31.67
2022-12-23T09:09:05.554Z,54.90
2022-12-23T09:11:35.487Z,44.63
2022-12-23T09:14:07.066Z,37.80
2022-12-23T09:16:36.223Z,67.40
2022-12-23T09:19:06.084Z,40.43
2022-12-23T09:21:34.744Z,29.80
2022-12-23T09:24:03.348Z,43.00
2022-12-23T09:26:32.744Z,34.03
2022-12-23T09:29:01.262Z,48.30
2022-12-23T09:31:36.865Z,39.70
2022-12-23T09:34:07.914Z,31.83
2022-12-23T09:36:36.367Z,171.90
2022-12-23T09:39:05.637Z,47.30
2022-12-23T09:42:01.552Z,75.53
2022-12-23T09:44:44.515Z,27.23
2022-12-23T09:47:19.564Z,45.43
2022-12-23T09:49:52.951Z,23.70
2022-12-23T09:52:26.842Z,19.13
2022-12-23T09:54:57.105Z,29.63
2022-12-23T09:57:35.385Z,25.33
2022-12-23T10:00:12.889Z,30.67
2022-12-23T10:02:58.091Z,25.27
2022-12-23T10:05:35.416Z,33.60
2022-12-23T10:08:09.018Z,28.47
2022-12-23T10:10:42.340Z,23.20
2022-12-23T10:13:20.546Z,30.67
2022-12-23T10:15:50.342Z,25.40
2022-12-23T10:18:26.546Z,19.47
2022-12-23T10:21:00.538Z,24.43
2022-12-23T10:23:34.401Z,21.10
2022-12-23T10:26:08.961Z,21.00
2022-12-23T10:28:37.612Z,15.93
2022-12-23T10:34:09.820Z,14.40
2022-12-23T10:36:47.302Z,19.03
2022-12-23T10:39:25.639Z,14.60
2022-12-23T10:42:05.451Z,14.07
2022-12-23T10:44:50.770Z,14.27
2022-12-23T10:47:38.619Z,13.67
2022-12-23T10:50:35.728Z,11.77
2022-12-23T10:53:11.925Z,16.27
2022-12-23T10:55:41.009Z,21.53
2022-12-23T10:58:16.317Z,15.20
2022-12-23T11:00:50.979Z,15.93
2022-12-23T11:03:23.478Z,15.40
2022-12-23T11:05:54.779Z,16.63
2022-12-23T11:11:08.196Z,16.33
2022-12-23T11:13:39.901Z,15.57
2022-12-23T11:16:22.661Z,13.33
2022-12-23T11:18:57.264Z,14.07
2022-12-23T11:21:27.599Z,17.17
2022-12-23T11:24:18.490Z,17.70
2022-12-23T11:26:50.673Z,11.30
2022-12-23T11:29:24.552Z,14.50
2022-12-23T11:31:53.681Z,12.80
2022-12-23T11:34:25.166Z,12.53
2022-12-23T11:37:01.799Z,13.20
2022-12-23T11:39:35.671Z,9.60
2022-12-23T11:42:13.253Z,10.90
2022-12-23T11:44:44.256Z,10.57
2022-12-23T11:47:25.629Z,11.60
2022-12-23T11:49:56.840Z,12.43
2022-12-23T11:52:29.025Z,10.70
2022-12-23T11:55:01.522Z,10.13
2022-12-23T11:57:40.451Z,8.50
2022-12-23T12:00:20.880Z,11.40
2022-12-23T12:02:52.798Z,13.90
2022-12-23T12:05:26.973Z,9.83
2022-12-23T12:08:01.330Z,15.83
2022-12-23T12:10:33.489Z,11.63
2022-12-23T12:13:05.292Z,9.50
2022-12-23T12:15:43.439Z,12.60
2022-12-23T12:18:18.310Z,8.30
2022-12-23T12:20:52.158Z,10.87
2022-12-23T12:23:28.705Z,13.20
2022-12-23T12:26:02.675Z,11.33
2022-12-23T12:28:36.237Z,13.70
2022-12-23T12:31:15.088Z,10.93
2022-12-23T12:33:52.310Z,13.20
2022-12-23T12:36:33.053Z,13.27
2022-12-23T12:39:02.997Z,13.00
2022-12-23T12:41:38.163Z,13.03
2022-12-23T12:44:24.433Z,11.00
2022-12-23T12:46:57.796Z,12.00
2022-12-23T12:49:34.143Z,11.80
2022-12-23T12:52:09.001Z,9.63
2022-12-23T12:54:44.256Z,11.47
2022-12-23T12:57:17.676Z,10.73
2022-12-23T12:59:49.662Z,12.50
2022-12-23T13:02:45.819Z,13.90
2022-12-23T13:05:30.372Z,11.07
2022-12-23T13:08:18.547Z,10.90
2022-12-23T13:10:56.925Z,10.80
2022-12-23T13:13:39.617Z,13.20
2022-12-23T13:16:15.451Z,11.37
2022-12-23T13:18:51.757Z,16.20
2022-12-23T13:21:25.514Z,14.10
2022-12-23T13:24:06.189Z,12.97
2022-12-23T13:26:39.216Z,15.60
2022-12-23T13:29:34.133Z,15.77
2022-12-23T13:32:09.500Z,13.97
2022-12-23T13:34:52.536Z,17.10
2022-12-23T13:37:32.381Z,12.43
2022-12-23T13:40:14.302Z,14.73
2022-12-23T13:42:50.373Z,11.47
2022-12-23T13:45:20.387Z,14.90
2022-12-23T13:48:04.773Z,15.30
2022-12-23T13:50:39.706Z,13.70
2022-12-23T13:53:17.282Z,13.37
2022-12-23T13:55:58.002Z,13.97
2022-12-23T13:58:31.291Z,13.40
2022-12-23T14:01:21.129Z,13.80
2022-12-23T14:03:50.886Z,25.77
2022-12-23T14:06:44.531Z,39.30
2022-12-23T14:09:16.513Z,75.60
2022-12-23T14:11:49.291Z,30.23
2022-12-23T14:14:24.822Z,29.40
2022-12-23T14:17:10.140Z,52.33
2022-12-23T14:19:56.520Z,40.07
2022-12-23T14:22:41.131Z,37.97
2022-12-23T14:25:48.306Z,32.10
2022-12-23T14:28:35.900Z,30.37
2022-12-23T14:31:28.254Z,26.00
2022-12-23T14:34:04.524Z,28.77
2022-12-23T14:36:33.206Z,37.37
2022-12-23T14:39:33.298Z,35.97
2022-12-23T14:42:05.966Z,35.63
2022-12-23T14:44:52.881Z,25.80
2022-12-23T14:47:40.357Z,26.00
2022-12-23T14:50:41.803Z,55.07
2022-12-23T14:53:24.145Z,24.47
2022-12-23T14:56:08.849Z,32.33
2022-12-23T14:59:01.978Z,12.53
2022-12-23T15:01:36.329Z,20.37
2022-12-23T15:04:19.749Z,13.80
2022-12-23T15:06:51.112Z,13.87
2022-12-23T15:09:26.298Z,11.77
2022-12-23T15:11:57.227Z,10.30
2022-12-23T15:14:32.642Z,9.83
2022-12-23T15:17:02.375Z,11.07
2022-12-23T15:19:34.140Z,17.17
2022-12-23T15:22:20.624Z,7.93
2022-12-23T15:24:51.020Z,12.13
2022-12-23T15:27:30.280Z,10.80
2022-12-23T15:30:05.626Z,10.93
2022-12-23T15:32:36.830Z,37.57
2022-12-23T15:35:08.941Z,16.10
2022-12-23T15:37:42.690Z,16.70
2022-12-23T15:40:25.881Z,16.53
2022-12-23T15:42:55.180Z,12.40
2022-12-23T15:45:35.492Z,17.93
2022-12-23T15:48:06.376Z,24.73
2022-12-23T15:50:42.246Z,18.60
2022-12-23T15:53:11.528Z,21.37
2022-12-23T15:55:41.991Z,15.70
2022-12-23T15:58:20.105Z,24.43
2022-12-23T16:00:57.622Z,16.57
2022-12-23T16:03:31.397Z,15.97
2022-12-23T16:06:11.225Z,15.77
2022-12-23T16:08:40.124Z,19.13
2022-12-23T16:11:15.799Z,102.40
2022-12-23T16:13:58.860Z,11.17
2022-12-23T16:16:40.240Z,31.20
2022-12-23T16:19:40.136Z,14.50
2022-12-23T16:22:18.733Z,12.83
2022-12-23T16:24:50.264Z,14.40
2022-12-23T16:27:34.765Z,11.90
2022-12-23T16:30:05.255Z,11.10
2022-12-23T16:32:45.818Z,7.67
2022-12-23T16:35:28.490Z,6.40
2022-12-23T16:38:11.172Z,7.37
2022-12-23T16:40:40.962Z,9.23
2022-12-23T16:43:11.154Z,9.60
2022-12-23T16:45:41.995Z,12.80
2022-12-23T16:48:27.054Z,11.60
2022-12-23T16:51:00.648Z,11.40
2022-12-23T16:53:30.710Z,11.03
2022-12-23T16:56:12.103Z,7.00
2022-12-23T16:58:41.147Z,7.97
2022-12-23T17:01:16.685Z,10.20
2022-12-23T17:03:46.948Z,7.63
2022-12-23T17:06:18.110Z,10.23
2022-12-23T17:08:50.749Z,9.90
2022-12-23T17:11:26.228Z,8.17
2022-12-23T17:13:59.756Z,9.60
2022-12-23T17:16:32.612Z,80.20
2022-12-23T17:19:01.360Z,13.43
2022-12-23T17:21:32.647Z,18.93
2022-12-23T17:24:06.123Z,37.33
2022-12-23T17:26:35.828Z,21.47
2022-12-23T17:29:05.361Z,11.90
2022-12-23T17:31:34.714Z,12.10
2022-12-23T17:34:03.505Z,11.80
2022-12-23T17:36:32.505Z,7.57
2022-12-23T17:39:02.920Z,11.73
2022-12-23T17:41:35.692Z,11.07
2022-12-23T17:44:21.404Z,148.77
2022-12-23T17:46:49.972Z,122.70
2022-12-23T17:49:19.781Z,145.80
2022-12-23T17:51:48.341Z,225.70
2022-12-23T17:54:26.482Z,91.33
2022-12-23T17:56:55.197Z,21.40
2022-12-23T17:59:23.874Z,17.97
2022-12-23T18:01:52.642Z,37.43
2022-12-23T18:04:21.598Z,24.33
2022-12-23T18:06:52.185Z,100.80
2022-12-23T18:09:25.235Z,211.43
2022-12-23T18:11:54.953Z,323.47
2022-12-23T18:14:28.806Z,191.60
2022-12-23T18:16:58.487Z,77.40
2022-12-23T18:19:29.308Z,57.53
2022-12-23T18:21:59.113Z,46.43
2022-12-23T18:24:30.213Z,57.07
2022-12-23T18:26:59.928Z,42.77
2022-12-23T18:29:28.703Z,72.83
2022-12-23T18:32:03.909Z,73.73
2022-12-23T18:34:32.764Z,112.47
2022-12-23T18:37:01.419Z,49.27
2022-12-23T18:39:31.413Z,43.67
2022-12-23T18:42:00.097Z,20.90
2022-12-23T18:44:29.426Z,30.87
2022-12-23T18:46:57.980Z,79.53
2022-12-23T18:49:26.976Z,45.27
2022-12-23T18:51:55.567Z,31.87
2022-12-23T18:54:23.944Z,16.20
2022-12-23T18:56:54.058Z,12.80
2022-12-23T18:59:30.067Z,22.00
2022-12-23T19:01:59.136Z,147.23
2022-12-23T19:04:28.640Z,17.93
2022-12-23T19:06:59.931Z,15.63
2022-12-23T19:09:28.499Z,11.67
2022-12-23T19:11:58.844Z,12.57
2022-12-23T19:14:27.393Z,15.33
2022-12-23T19:16:56.166Z,16.17
2022-12-23T19:19:24.837Z,11.27
2022-12-23T19:21:53.395Z,11.73
2022-12-23T19:24:22.050Z,12.87
2022-12-23T19:26:50.615Z,12.20
2022-12-23T19:29:20.524Z,11.03
2022-12-23T19:31:50.191Z,11.03
2022-12-23T19:34:18.728Z,10.30
2022-12-23T19:36:48.338Z,11.87
2022-12-23T19:39:21.870Z,11.67
2022-12-23T19:41:50.401Z,23.77
2022-12-23T19:44:24.388Z,16.50
2022-12-23T19:46:52.874Z,15.20
2022-12-23T19:49:21.615Z,16.50
2022-12-23T19:51:50.433Z,16.87
2022-12-23T19:54:19.898Z,21.87
2022-12-23T19:56:51.592Z,16.90
2022-12-23T19:59:23.268Z,15.47
2022-12-23T20:01:51.771Z,22.63
2022-12-23T20:04:23.930Z,16.97
2022-12-23T20:06:53.124Z,20.27
2022-12-23T20:09:24.111Z,17.20
2022-12-23T20:11:53.215Z,19.90
2022-12-23T20:14:27.717Z,15.47
2022-12-23T20:16:59.824Z,17.17
2022-12-23T20:19:28.623Z,15.03
2022-12-23T20:21:57.178Z,20.23
2022-12-23T20:24:25.769Z,17.60
2022-12-23T20:26:54.212Z,15.97
2022-12-23T20:29:24.340Z,18.47
2022-12-23T20:31:52.965Z,20.43
2022-12-23T20:34:21.859Z,25.43
2022-12-23T20:36:50.590Z,18.37
2022-12-23T20:39:19.101Z,21.97
2022-12-23T20:41:47.826Z,18.80
2022-12-23T20:47:06.860Z,15.90
2022-12-23T20:49:35.627Z,11.80
2022-12-23T20:52:04.283Z,9.77
2022-12-23T20:54:34.005Z,13.47
2022-12-23T20:57:04.165Z,15.60
2022-12-23T20:59:33.691Z,17.00
2022-12-23T21:02:11.208Z,15.37
2022-12-23T21:04:44.344Z,17.23
2022-12-23T21:07:13.301Z,18.73
2022-12-23T21:09:41.773Z,18.47
2022-12-23T21:12:10.717Z,23.60
2022-12-23T21:14:40.513Z,27.50
2022-12-23T21:17:10.637Z,20.97
2022-12-23T21:19:39.291Z,19.47
2022-12-23T21:22:08.421Z,21.47
2022-12-23T21:24:36.915Z,22.00
2022-12-23T21:27:05.616Z,20.93
2022-12-23T21:29:34.983Z,17.83
2022-12-23T21:32:04.609Z,21.00
2022-12-23T21:34:34.673Z,22.47
2022-12-23T21:37:03.527Z,28.90
2022-12-23T21:39:32.243Z,22.30
2022-12-23T21:42:01.847Z,25.47
2022-12-23T21:44:30.339Z,20.33
2022-12-23T21:46:58.960Z,27.00
2022-12-23T21:49:27.667Z,23.93
2022-12-23T21:51:57.904Z,30.43
2022-12-23T21:54:26.625Z,19.40
2022-12-23T21:56:57.609Z,28.70
2022-12-23T21:59:34.522Z,24.87
2022-12-23T22:02:04.626Z,21.30
2022-12-23T22:04:33.203Z,18.80
2022-12-23T22:07:03.402Z,18.57
2022-12-23T22:09:33.053Z,22.70
2022-12-23T22:12:01.687Z,22.43
2022-12-23T22:14:30.377Z,20.20
2022-12-23T22:17:00.040Z,21.30
2022-12-23T22:19:28.744Z,19.10
2022-12-23T22:21:57.324Z,23.93
2022-12-23T22:24:27.515Z,23.63
2022-12-23T22:26:57.206Z,14.80
2022-12-23T22:29:26.043Z,18.30
2022-12-23T22:31:55.591Z,17.70
2022-12-23T22:34:24.820Z,21.37
2022-12-23T22:36:53.421Z,20.13
2022-12-23T22:39:23.032Z,18.13
2022-12-23T22:41:53.854Z,16.80
2022-12-23T22:44:22.634Z,14.23
2022-12-23T22:46:51.786Z,18.77
2022-12-23T22:49:20.647Z,21.33
2022-12-23T22:51:49.097Z,20.63
2022-12-23T22:54:17.667Z,21.63
2022-12-23T22:56:49.346Z,24.80
2022-12-23T22:59:31.393Z,19.80
2022-12-23T23:02:00.065Z,23.17
2022-12-23T23:04:28.699Z,26.63
2022-12-23T23:06:57.138Z,21.90
2022-12-23T23:09:27.297Z,22.80
2022-12-23T23:11:56.474Z,19.70
2022-12-23T23:14:26.751Z,15.63
2022-12-23T23:16:56.219Z,16.10
2022-12-23T23:19:24.924Z,17.30
2022-12-23T23:21:54.635Z,19.50
2022-12-23T23:24:29.342Z,19.57
2022-12-23T23:26:59.763Z,20.23
2022-12-23T23:29:30.566Z,18.20
2022-12-23T23:31:59.232Z,31.00
2022-12-23T23:34:29.230Z,14.47
2022-12-23T23:36:58.690Z,20.37
2022-12-23T23:39:27.968Z,19.80
2022-12-23T23:41:56.623Z,19.10
2022-12-23T23:44:25.154Z,16.63
2022-12-23T23:46:56.387Z,21.33
2022-12-23T23:49:25.077Z,24.60
2022-12-23T23:51:55.025Z,21.50
2022-12-23T23:54:23.669Z,26.63
2022-12-23T23:56:52.268Z,23.83
2022-12-23T23:59:20.872Z,24.07
